sensor_id;sensor_type;location;lat;lon;timestamp;P1;durP1;ratioP1;P2;durP2;ratioP2
79249;SDS011;68679;51.030;7.584;2023-08-21T00:00:09;11.93;;;6.63;;
79249;SDS011;68679;51.030;7.584;2023-08-21T00:02:35;13.65;;;6.80;;
79249;SDS011;68679;51.030;7.584;2023-08-21T00:05:00;13.73;;;6.20;;
79249;SDS011;68679;51.030;7.584;2023-08-21T00:07:25;13.07;;;6.60;;
79249;SDS011;68679;51.030;7.584;2023-08-21T00:09:50;9.90;;;6.83;;
79249;SDS011;68679;51.030;7.584;2023-08-21T00:12:16;12.70;;;7.33;;
79249;SDS011;68679;51.030;7.584;2023-08-21T00:14:41;12.37;;;6.87;;
79249;SDS011;68679;51.030;7.584;2023-08-21T00:17:06;11.47;;;6.97;;
79249;SDS011;68679;51.030;7.584;2023-08-21T00:19:33;9.75;;;6.13;;
79249;SDS011;68679;51.030;7.584;2023-08-21T00:21:59;11.43;;;6.63;;
79249;SDS011;68679;51.030;7.584;2023-08-21T00:24:24;10.68;;;6.03;;
79249;SDS011;68679;51.030;7.584;2023-08-21T00:26:50;9.77;;;6.43;;
79249;SDS011;68679;51.030;7.584;2023-08-21T00:29:15;12.20;;;5.70;;
79249;SDS011;68679;51.030;7.584;2023-08-21T00:31:40;10.87;;;6.20;;
79249;SDS011;68679;51.030;7.584;2023-08-21T00:34:06;10.23;;;5.90;;
79249;SDS011;68679;51.030;7.584;2023-08-21T00:36:31;11.82;;;6.45;;
79249;SDS011;68679;51.030;7.584;2023-08-21T00:38:56;9.47;;;6.47;;
79249;SDS011;68679;51.030;7.584;2023-08-21T00:41:22;13.03;;;6.53;;
79249;SDS011;68679;51.030;7.584;2023-08-21T00:43:47;11.93;;;5.87;;
79249;SDS011;68679;51.030;7.584;2023-08-21T00:46:13;10.93;;;6.33;;
79249;SDS011;68679;51.030;7.584;2023-08-21T00:48:39;13.65;;;6.35;;
79249;SDS011;68679;51.030;7.584;2023-08-21T00:51:04;11.48;;;6.65;;
79249;SDS011;68679;51.030;7.584;2023-08-21T00:53:31;11.73;;;6.38;;
79249;SDS011;68679;51.030;7.584;2023-08-21T00:55:57;9.35;;;6.03;;
79249;SDS011;68679;51.030;7.584;2023-08-21T00:58:23;11.27;;;5.85;;
79249;SDS011;68679;51.030;7.584;2023-08-21T01:00:48;8.53;;;5.90;;
79249;SDS011;68679;51.030;7.584;2023-08-21T01:03:15;7.93;;;5.75;;
79249;SDS011;68679;51.030;7.584;2023-08-21T01:05:40;12.30;;;6.40;;
79249;SDS011;68679;51.030;7.584;2023-08-21T01:08:06;9.47;;;5.67;;
79249;SDS011;68679;51.030;7.584;2023-08-21T01:10:56;9.77;;;5.55;;
79249;SDS011;68679;51.030;7.584;2023-08-21T01:16:14;8.73;;;5.80;;
79249;SDS011;68679;51.030;7.584;2023-08-21T01:18:41;10.90;;;5.85;;
79249;SDS011;68679;51.030;7.584;2023-08-21T01:21:07;9.82;;;5.97;;
79249;SDS011;68679;51.030;7.584;2023-08-21T01:23:34;10.02;;;5.90;;
79249;SDS011;68679;51.030;7.584;2023-08-21T01:26:03;9.18;;;6.55;;
79249;SDS011;68679;51.030;7.584;2023-08-21T01:28:29;13.48;;;6.18;;
79249;SDS011;68679;51.030;7.584;2023-08-21T01:33:53;9.80;;;5.60;;
79249;SDS011;68679;51.030;7.584;2023-08-21T01:36:23;9.40;;;6.20;;
79249;SDS011;68679;51.030;7.584;2023-08-21T01:38:49;13.13;;;6.25;;
79249;SDS011;68679;51.030;7.584;2023-08-21T01:41:15;10.13;;;5.85;;
79249;SDS011;68679;51.030;7.584;2023-08-21T01:43:40;10.10;;;6.13;;
79249;SDS011;68679;51.030;7.584;2023-08-21T01:46:05;11.77;;;6.70;;
79249;SDS011;68679;51.030;7.584;2023-08-21T01:48:31;14.55;;;6.43;;
79249;SDS011;68679;51.030;7.584;2023-08-21T01:50:56;14.97;;;6.63;;
79249;SDS011;68679;51.030;7.584;2023-08-21T01:53:21;12.63;;;6.23;;
79249;SDS011;68679;51.030;7.584;2023-08-21T01:55:47;11.63;;;5.88;;
79249;SDS011;68679;51.030;7.584;2023-08-21T01:58:12;8.40;;;5.93;;
79249;SDS011;68679;51.030;7.584;2023-08-21T02:00:37;14.23;;;5.87;;
79249;SDS011;68679;51.030;7.584;2023-08-21T02:03:03;10.57;;;6.40;;
79249;SDS011;68679;51.030;7.584;2023-08-21T02:05:28;12.27;;;6.70;;
79249;SDS011;68679;51.030;7.584;2023-08-21T02:07:53;12.70;;;6.80;;
79249;SDS011;68679;51.030;7.584;2023-08-21T02:10:19;10.70;;;6.47;;
79249;SDS011;68679;51.030;7.584;2023-08-21T02:12:44;8.80;;;5.97;;
79249;SDS011;68679;51.030;7.584;2023-08-21T02:15:09;13.37;;;5.93;;
79249;SDS011;68679;51.030;7.584;2023-08-21T02:17:35;11.82;;;6.30;;
79249;SDS011;68679;51.030;7.584;2023-08-21T02:20:00;14.23;;;7.20;;
79249;SDS011;68679;51.030;7.584;2023-08-21T02:22:26;12.20;;;6.07;;
79249;SDS011;68679;51.030;7.584;2023-08-21T02:24:51;13.70;;;7.25;;
79249;SDS011;68679;51.030;7.584;2023-08-21T02:27:16;10.23;;;6.90;;
79249;SDS011;68679;51.030;7.584;2023-08-21T02:29:42;9.30;;;6.53;;
79249;SDS011;68679;51.030;7.584;2023-08-21T02:32:07;11.30;;;6.20;;
79249;SDS011;68679;51.030;7.584;2023-08-21T02:34:32;12.00;;;6.60;;
79249;SDS011;68679;51.030;7.584;2023-08-21T02:36:57;15.60;;;5.90;;
79249;SDS011;68679;51.030;7.584;2023-08-21T02:39:23;15.52;;;7.05;;
79249;SDS011;68679;51.030;7.584;2023-08-21T02:41:48;12.10;;;5.88;;
79249;SDS011;68679;51.030;7.584;2023-08-21T02:44:14;14.10;;;8.03;;
79249;SDS011;68679;51.030;7.584;2023-08-21T02:46:39;9.03;;;6.47;;
79249;SDS011;68679;51.030;7.584;2023-08-21T02:49:04;22.27;;;6.80;;
79249;SDS011;68679;51.030;7.584;2023-08-21T02:51:29;15.73;;;7.17;;
79249;SDS011;68679;51.030;7.584;2023-08-21T02:53:55;14.68;;;6.85;;
79249;SDS011;68679;51.030;7.584;2023-08-21T02:56:20;11.67;;;6.30;;
79249;SDS011;68679;51.030;7.584;2023-08-21T02:58:46;13.38;;;6.68;;
79249;SDS011;68679;51.030;7.584;2023-08-21T03:01:11;11.43;;;6.47;;
79249;SDS011;68679;51.030;7.584;2023-08-21T03:03:36;11.83;;;6.63;;
79249;SDS011;68679;51.030;7.584;2023-08-21T03:06:02;12.87;;;6.37;;
79249;SDS011;68679;51.030;7.584;2023-08-21T03:08:27;13.20;;;6.55;;
79249;SDS011;68679;51.030;7.584;2023-08-21T03:10:52;14.07;;;7.10;;
79249;SDS011;68679;51.030;7.584;2023-08-21T03:13:18;13.07;;;6.77;;
79249;SDS011;68679;51.030;7.584;2023-08-21T03:15:43;15.88;;;6.63;;
79249;SDS011;68679;51.030;7.584;2023-08-21T03:18:08;19.13;;;6.90;;
79249;SDS011;68679;51.030;7.584;2023-08-21T03:20:34;14.33;;;7.37;;
79249;SDS011;68679;51.030;7.584;2023-08-21T03:22:59;14.03;;;7.20;;
79249;SDS011;68679;51.030;7.584;2023-08-21T03:25:24;10.38;;;6.57;;
79249;SDS011;68679;51.030;7.584;2023-08-21T03:27:50;12.77;;;6.88;;
79249;SDS011;68679;51.030;7.584;2023-08-21T03:30:15;11.67;;;7.13;;
79249;SDS011;68679;51.030;7.584;2023-08-21T03:32:40;15.57;;;7.03;;
79249;SDS011;68679;51.030;7.584;2023-08-21T03:35:06;24.15;;;7.57;;
79249;SDS011;68679;51.030;7.584;2023-08-21T03:37:31;13.52;;;7.80;;
79249;SDS011;68679;51.030;7.584;2023-08-21T03:39:57;19.15;;;7.10;;
79249;SDS011;68679;51.030;7.584;2023-08-21T03:42:22;13.60;;;6.87;;
79249;SDS011;68679;51.030;7.584;2023-08-21T03:44:47;14.77;;;7.20;;
79249;SDS011;68679;51.030;7.584;2023-08-21T03:47:15;16.52;;;7.93;;
79249;SDS011;68679;51.030;7.584;2023-08-21T03:49:41;13.57;;;7.93;;
79249;SDS011;68679;51.030;7.584;2023-08-21T03:52:06;13.15;;;7.68;;
79249;SDS011;68679;51.030;7.584;2023-08-21T03:54:31;15.53;;;7.50;;
79249;SDS011;68679;51.030;7.584;2023-08-21T03:56:56;15.20;;;7.20;;
79249;SDS011;68679;51.030;7.584;2023-08-21T03:59:22;15.90;;;7.60;;
79249;SDS011;68679;51.030;7.584;2023-08-21T04:01:48;16.83;;;8.05;;
79249;SDS011;68679;51.030;7.584;2023-08-21T04:04:14;14.68;;;7.85;;
79249;SDS011;68679;51.030;7.584;2023-08-21T04:06:39;15.00;;;7.93;;
79249;SDS011;68679;51.030;7.584;2023-08-21T04:09:04;15.53;;;8.23;;
79249;SDS011;68679;51.030;7.584;2023-08-21T04:11:31;14.88;;;7.40;;
79249;SDS011;68679;51.030;7.584;2023-08-21T04:13:57;13.27;;;8.80;;
79249;SDS011;68679;51.030;7.584;2023-08-21T04:16:24;16.13;;;8.13;;
79249;SDS011;68679;51.030;7.584;2023-08-21T04:18:49;14.95;;;7.97;;
79249;SDS011;68679;51.030;7.584;2023-08-21T04:21:15;15.80;;;8.27;;
79249;SDS011;68679;51.030;7.584;2023-08-21T04:23:40;17.65;;;8.00;;
79249;SDS011;68679;51.030;7.584;2023-08-21T04:26:05;11.43;;;7.57;;
79249;SDS011;68679;51.030;7.584;2023-08-21T04:28:33;14.85;;;8.02;;
79249;SDS011;68679;51.030;7.584;2023-08-21T04:30:58;19.17;;;7.88;;
79249;SDS011;68679;51.030;7.584;2023-08-21T04:33:30;20.90;;;8.27;;
79249;SDS011;68679;51.030;7.584;2023-08-21T04:35:56;20.45;;;8.13;;
79249;SDS011;68679;51.030;7.584;2023-08-21T04:38:21;13.43;;;8.23;;
79249;SDS011;68679;51.030;7.584;2023-08-21T04:40:47;13.00;;;8.33;;
79249;SDS011;68679;51.030;7.584;2023-08-21T04:43:12;15.55;;;9.02;;
79249;SDS011;68679;51.030;7.584;2023-08-21T04:45:37;15.73;;;8.70;;
79249;SDS011;68679;51.030;7.584;2023-08-21T04:48:06;17.92;;;9.07;;
79249;SDS011;68679;51.030;7.584;2023-08-21T04:50:31;11.55;;;7.75;;
79249;SDS011;68679;51.030;7.584;2023-08-21T04:52:56;15.90;;;7.85;;
79249;SDS011;68679;51.030;7.584;2023-08-21T04:55:22;16.90;;;8.37;;
79249;SDS011;68679;51.030;7.584;2023-08-21T04:57:47;14.73;;;8.30;;
79249;SDS011;68679;51.030;7.584;2023-08-21T05:00:12;16.40;;;8.47;;
79249;SDS011;68679;51.030;7.584;2023-08-21T05:02:38;14.27;;;8.40;;
79249;SDS011;68679;51.030;7.584;2023-08-21T05:05:03;14.80;;;7.93;;
79249;SDS011;68679;51.030;7.584;2023-08-21T05:07:29;16.50;;;9.02;;
79249;SDS011;68679;51.030;7.584;2023-08-21T05:09:55;12.73;;;8.47;;
79249;SDS011;68679;51.030;7.584;2023-08-21T05:12:24;23.10;;;8.70;;
79249;SDS011;68679;51.030;7.584;2023-08-21T05:14:51;14.82;;;9.23;;
79249;SDS011;68679;51.030;7.584;2023-08-21T05:17:16;16.10;;;9.20;;
79249;SDS011;68679;51.030;7.584;2023-08-21T05:19:41;18.80;;;9.30;;
79249;SDS011;68679;51.030;7.584;2023-08-21T05:22:06;14.40;;;9.80;;
79249;SDS011;68679;51.030;7.584;2023-08-21T05:24:32;15.17;;;9.90;;
79249;SDS011;68679;51.030;7.584;2023-08-21T05:26:57;13.70;;;9.40;;
79249;SDS011;68679;51.030;7.584;2023-08-21T05:29:22;20.10;;;10.00;;
79249;SDS011;68679;51.030;7.584;2023-08-21T05:31:48;19.38;;;9.93;;
79249;SDS011;68679;51.030;7.584;2023-08-21T05:34:13;14.23;;;8.50;;
79249;SDS011;68679;51.030;7.584;2023-08-21T05:36:38;14.93;;;9.53;;
79249;SDS011;68679;51.030;7.584;2023-08-21T05:39:04;20.13;;;9.87;;
79249;SDS011;68679;51.030;7.584;2023-08-21T05:41:30;17.15;;;9.63;;
79249;SDS011;68679;51.030;7.584;2023-08-21T05:43:56;13.85;;;9.48;;
79249;SDS011;68679;51.030;7.584;2023-08-21T05:46:21;19.37;;;9.70;;
79249;SDS011;68679;51.030;7.584;2023-08-21T05:48:47;13.93;;;9.17;;
79249;SDS011;68679;51.030;7.584;2023-08-21T05:51:12;13.67;;;9.47;;
79249;SDS011;68679;51.030;7.584;2023-08-21T05:53:38;20.70;;;9.93;;
79249;SDS011;68679;51.030;7.584;2023-08-21T05:56:03;15.67;;;8.90;;
79249;SDS011;68679;51.030;7.584;2023-08-21T05:58:28;17.67;;;9.13;;
79249;SDS011;68679;51.030;7.584;2023-08-21T06:00:56;24.60;;;9.95;;
79249;SDS011;68679;51.030;7.584;2023-08-21T06:03:21;24.70;;;9.57;;
79249;SDS011;68679;51.030;7.584;2023-08-21T06:05:47;21.10;;;9.70;;
79249;SDS011;68679;51.030;7.584;2023-08-21T06:08:12;20.90;;;10.35;;
79249;SDS011;68679;51.030;7.584;2023-08-21T06:10:37;19.60;;;10.47;;
79249;SDS011;68679;51.030;7.584;2023-08-21T06:13:03;19.20;;;10.70;;
79249;SDS011;68679;51.030;7.584;2023-08-21T06:15:28;17.30;;;10.63;;
79249;SDS011;68679;51.030;7.584;2023-08-21T06:17:53;15.73;;;10.30;;
79249;SDS011;68679;51.030;7.584;2023-08-21T06:20:19;15.67;;;9.17;;
79249;SDS011;68679;51.030;7.584;2023-08-21T06:22:45;15.43;;;9.55;;
79249;SDS011;68679;51.030;7.584;2023-08-21T06:25:10;22.77;;;10.63;;
79249;SDS011;68679;51.030;7.584;2023-08-21T06:27:36;17.95;;;11.00;;
79249;SDS011;68679;51.030;7.584;2023-08-21T06:30:01;19.90;;;10.80;;
79249;SDS011;68679;51.030;7.584;2023-08-21T06:32:26;25.05;;;10.50;;
79249;SDS011;68679;51.030;7.584;2023-08-21T06:34:52;17.77;;;10.47;;
79249;SDS011;68679;51.030;7.584;2023-08-21T06:37:17;14.00;;;9.60;;
79249;SDS011;68679;51.030;7.584;2023-08-21T06:39:42;16.50;;;10.03;;
79249;SDS011;68679;51.030;7.584;2023-08-21T06:42:07;19.60;;;10.17;;
79249;SDS011;68679;51.030;7.584;2023-08-21T06:44:33;17.67;;;10.20;;
79249;SDS011;68679;51.030;7.584;2023-08-21T06:46:58;18.50;;;10.65;;
79249;SDS011;68679;51.030;7.584;2023-08-21T06:49:23;17.43;;;11.23;;
79249;SDS011;68679;51.030;7.584;2023-08-21T06:51:49;17.73;;;9.93;;
79249;SDS011;68679;51.030;7.584;2023-08-21T06:54:14;19.67;;;11.25;;
79249;SDS011;68679;51.030;7.584;2023-08-21T06:56:40;16.60;;;10.90;;
79249;SDS011;68679;51.030;7.584;2023-08-21T06:59:05;19.93;;;11.57;;
79249;SDS011;68679;51.030;7.584;2023-08-21T07:01:31;20.83;;;10.82;;
79249;SDS011;68679;51.030;7.584;2023-08-21T07:03:56;20.73;;;11.40;;
79249;SDS011;68679;51.030;7.584;2023-08-21T07:06:21;23.13;;;11.37;;
79249;SDS011;68679;51.030;7.584;2023-08-21T07:08:46;20.63;;;11.27;;
79249;SDS011;68679;51.030;7.584;2023-08-21T07:11:12;19.17;;;11.17;;
79249;SDS011;68679;51.030;7.584;2023-08-21T07:13:37;23.23;;;12.43;;
79249;SDS011;68679;51.030;7.584;2023-08-21T07:16:03;21.85;;;11.63;;
79249;SDS011;68679;51.030;7.584;2023-08-21T07:18:31;16.35;;;12.13;;
79249;SDS011;68679;51.030;7.584;2023-08-21T07:20:59;18.25;;;11.70;;
79249;SDS011;68679;51.030;7.584;2023-08-21T07:23:26;18.88;;;11.70;;
79249;SDS011;68679;51.030;7.584;2023-08-21T07:25:51;21.92;;;11.43;;
79249;SDS011;68679;51.030;7.584;2023-08-21T07:28:16;20.13;;;12.60;;
79249;SDS011;68679;51.030;7.584;2023-08-21T07:30:42;19.15;;;12.20;;
79249;SDS011;68679;51.030;7.584;2023-08-21T07:33:07;21.03;;;11.67;;
79249;SDS011;68679;51.030;7.584;2023-08-21T07:35:32;18.30;;;11.57;;
79249;SDS011;68679;51.030;7.584;2023-08-21T07:37:57;25.17;;;12.00;;
79249;SDS011;68679;51.030;7.584;2023-08-21T07:40:23;22.48;;;11.50;;
79249;SDS011;68679;51.030;7.584;2023-08-21T07:42:48;20.80;;;12.98;;
79249;SDS011;68679;51.030;7.584;2023-08-21T07:45:14;22.80;;;12.73;;
79249;SDS011;68679;51.030;7.584;2023-08-21T07:47:39;18.38;;;12.75;;
79249;SDS011;68679;51.030;7.584;2023-08-21T07:50:05;16.47;;;10.93;;
79249;SDS011;68679;51.030;7.584;2023-08-21T07:52:31;16.95;;;11.18;;
79249;SDS011;68679;51.030;7.584;2023-08-21T07:54:57;16.33;;;11.60;;
79249;SDS011;68679;51.030;7.584;2023-08-21T07:57:25;20.75;;;12.30;;
79249;SDS011;68679;51.030;7.584;2023-08-21T07:59:51;18.73;;;12.80;;
79249;SDS011;68679;51.030;7.584;2023-08-21T08:02:16;15.68;;;10.98;;
79249;SDS011;68679;51.030;7.584;2023-08-21T08:04:42;18.88;;;11.70;;
79249;SDS011;68679;51.030;7.584;2023-08-21T08:07:08;17.77;;;11.13;;
79249;SDS011;68679;51.030;7.584;2023-08-21T08:09:33;16.55;;;11.68;;
79249;SDS011;68679;51.030;7.584;2023-08-21T08:11:58;16.67;;;11.07;;
79249;SDS011;68679;51.030;7.584;2023-08-21T08:14:24;18.17;;;10.83;;
79249;SDS011;68679;51.030;7.584;2023-08-21T08:16:49;17.98;;;11.60;;
79249;SDS011;68679;51.030;7.584;2023-08-21T08:19:14;19.87;;;12.13;;
79249;SDS011;68679;51.030;7.584;2023-08-21T08:21:40;16.93;;;11.77;;
79249;SDS011;68679;51.030;7.584;2023-08-21T08:24:05;20.53;;;12.17;;
79249;SDS011;68679;51.030;7.584;2023-08-21T08:26:30;17.70;;;11.03;;
79249;SDS011;68679;51.030;7.584;2023-08-21T08:28:56;23.40;;;11.57;;
79249;SDS011;68679;51.030;7.584;2023-08-21T08:31:21;16.70;;;11.33;;
79249;SDS011;68679;51.030;7.584;2023-08-21T08:33:48;17.58;;;11.55;;
79249;SDS011;68679;51.030;7.584;2023-08-21T08:36:14;16.98;;;10.93;;
79249;SDS011;68679;51.030;7.584;2023-08-21T08:38:39;21.77;;;11.63;;
79249;SDS011;68679;51.030;7.584;2023-08-21T08:41:06;20.37;;;11.27;;
79249;SDS011;68679;51.030;7.584;2023-08-21T08:43:37;16.83;;;11.40;;
79249;SDS011;68679;51.030;7.584;2023-08-21T08:46:04;19.40;;;11.77;;
79249;SDS011;68679;51.030;7.584;2023-08-21T08:48:32;16.67;;;10.73;;
79249;SDS011;68679;51.030;7.584;2023-08-21T08:50:58;18.65;;;10.80;;
79249;SDS011;68679;51.030;7.584;2023-08-21T08:53:24;17.55;;;10.30;;
79249;SDS011;68679;51.030;7.584;2023-08-21T08:55:52;16.33;;;10.50;;
79249;SDS011;68679;51.030;7.584;2023-08-21T08:58:17;13.07;;;9.87;;
79249;SDS011;68679;51.030;7.584;2023-08-21T09:00:42;16.60;;;10.43;;
79249;SDS011;68679;51.030;7.584;2023-08-21T09:03:08;18.48;;;11.43;;
79249;SDS011;68679;51.030;7.584;2023-08-21T09:05:35;16.40;;;10.23;;
79249;SDS011;68679;51.030;7.584;2023-08-21T09:08:13;15.55;;;10.23;;
79249;SDS011;68679;51.030;7.584;2023-08-21T09:10:40;17.30;;;11.00;;
79249;SDS011;68679;51.030;7.584;2023-08-21T09:13:13;18.90;;;11.68;;
79249;SDS011;68679;51.030;7.584;2023-08-21T09:15:41;15.82;;;11.55;;
79249;SDS011;68679;51.030;7.584;2023-08-21T09:18:12;17.15;;;10.95;;
79249;SDS011;68679;51.030;7.584;2023-08-21T09:20:39;16.35;;;11.55;;
79249;SDS011;68679;51.030;7.584;2023-08-21T09:23:05;17.73;;;11.15;;
79249;SDS011;68679;51.030;7.584;2023-08-21T09:25:39;20.73;;;12.63;;
79249;SDS011;68679;51.030;7.584;2023-08-21T09:28:06;16.85;;;11.82;;
79249;SDS011;68679;51.030;7.584;2023-08-21T09:33:19;17.13;;;10.25;;
79249;SDS011;68679;51.030;7.584;2023-08-21T09:35:46;14.80;;;9.98;;
79249;SDS011;68679;51.030;7.584;2023-08-21T09:38:12;14.57;;;9.98;;
79249;SDS011;68679;51.030;7.584;2023-08-21T09:40:42;13.98;;;9.77;;
79249;SDS011;68679;51.030;7.584;2023-08-21T09:43:16;15.93;;;8.80;;
79249;SDS011;68679;51.030;7.584;2023-08-21T09:45:42;15.15;;;9.68;;
79249;SDS011;68679;51.030;7.584;2023-08-21T09:48:11;14.10;;;10.10;;
79249;SDS011;68679;51.030;7.584;2023-08-21T09:50:38;14.20;;;10.18;;
79249;SDS011;68679;51.030;7.584;2023-08-21T09:53:03;16.15;;;9.93;;
79249;SDS011;68679;51.030;7.584;2023-08-21T09:55:31;13.95;;;10.05;;
79249;SDS011;68679;51.030;7.584;2023-08-21T09:58:00;13.43;;;8.80;;
79249;SDS011;68679;51.030;7.584;2023-08-21T10:00:36;10.75;;;8.75;;
79249;SDS011;68679;51.030;7.584;2023-08-21T10:03:03;13.65;;;9.52;;
79249;SDS011;68679;51.030;7.584;2023-08-21T10:05:32;13.27;;;10.20;;
79249;SDS011;68679;51.030;7.584;2023-08-21T10:08:02;15.77;;;9.38;;
79249;SDS011;68679;51.030;7.584;2023-08-21T10:10:30;11.65;;;9.00;;
79249;SDS011;68679;51.030;7.584;2023-08-21T10:12:57;16.10;;;9.40;;
79249;SDS011;68679;51.030;7.584;2023-08-21T10:15:24;11.32;;;8.52;;
79249;SDS011;68679;51.030;7.584;2023-08-21T10:17:50;16.27;;;8.27;;
79249;SDS011;68679;51.030;7.584;2023-08-21T10:20:20;14.18;;;8.07;;
79249;SDS011;68679;51.030;7.584;2023-08-21T10:22:49;11.00;;;7.40;;
79249;SDS011;68679;51.030;7.584;2023-08-21T10:25:20;9.95;;;7.30;;
79249;SDS011;68679;51.030;7.584;2023-08-21T10:27:51;12.90;;;7.20;;
79249;SDS011;68679;51.030;7.584;2023-08-21T10:30:27;12.35;;;8.57;;
79249;SDS011;68679;51.030;7.584;2023-08-21T10:32:54;13.65;;;7.85;;
79249;SDS011;68679;51.030;7.584;2023-08-21T10:35:21;12.50;;;7.82;;
79249;SDS011;68679;51.030;7.584;2023-08-21T10:38:04;11.27;;;8.43;;
79249;SDS011;68679;51.030;7.584;2023-08-21T10:40:36;11.40;;;8.18;;
79249;SDS011;68679;51.030;7.584;2023-08-21T10:43:02;12.02;;;7.50;;
79249;SDS011;68679;51.030;7.584;2023-08-21T10:45:27;13.70;;;7.03;;
79249;SDS011;68679;51.030;7.584;2023-08-21T10:47:56;10.23;;;7.85;;
79249;SDS011;68679;51.030;7.584;2023-08-21T10:50:22;15.48;;;7.00;;
79249;SDS011;68679;51.030;7.584;2023-08-21T10:52:47;11.27;;;7.43;;
79249;SDS011;68679;51.030;7.584;2023-08-21T10:55:16;11.73;;;7.22;;
79249;SDS011;68679;51.030;7.584;2023-08-21T10:57:48;10.88;;;7.63;;
79249;SDS011;68679;51.030;7.584;2023-08-21T11:00:15;10.23;;;7.13;;
79249;SDS011;68679;51.030;7.584;2023-08-21T11:02:46;11.88;;;6.72;;
79249;SDS011;68679;51.030;7.584;2023-08-21T11:05:12;9.80;;;7.68;;
79249;SDS011;68679;51.030;7.584;2023-08-21T11:07:42;9.68;;;6.40;;
79249;SDS011;68679;51.030;7.584;2023-08-21T11:10:11;10.00;;;6.55;;
79249;SDS011;68679;51.030;7.584;2023-08-21T11:12:38;12.40;;;7.65;;
79249;SDS011;68679;51.030;7.584;2023-08-21T11:15:12;10.20;;;7.55;;
79249;SDS011;68679;51.030;7.584;2023-08-21T11:17:37;11.20;;;7.33;;
79249;SDS011;68679;51.030;7.584;2023-08-21T11:20:03;11.73;;;8.57;;
79249;SDS011;68679;51.030;7.584;2023-08-21T11:22:31;10.45;;;7.43;;
79249;SDS011;68679;51.030;7.584;2023-08-21T11:24:57;9.80;;;7.20;;
79249;SDS011;68679;51.030;7.584;2023-08-21T11:27:22;11.33;;;7.93;;
79249;SDS011;68679;51.030;7.584;2023-08-21T11:29:49;10.52;;;7.82;;
79249;SDS011;68679;51.030;7.584;2023-08-21T11:32:17;11.15;;;8.40;;
79249;SDS011;68679;51.030;7.584;2023-08-21T11:34:50;8.65;;;6.40;;
79249;SDS011;68679;51.030;7.584;2023-08-21T11:37:17;12.27;;;7.15;;
79249;SDS011;68679;51.030;7.584;2023-08-21T11:39:47;10.65;;;6.70;;
79249;SDS011;68679;51.030;7.584;2023-08-21T11:42:18;12.55;;;7.25;;
79249;SDS011;68679;51.030;7.584;2023-08-21T11:44:49;9.95;;;7.07;;
79249;SDS011;68679;51.030;7.584;2023-08-21T11:47:16;12.88;;;7.60;;
79249;SDS011;68679;51.030;7.584;2023-08-21T11:49:43;12.95;;;7.68;;
79249;SDS011;68679;51.030;7.584;2023-08-21T11:52:12;11.90;;;7.45;;
79249;SDS011;68679;51.030;7.584;2023-08-21T11:54:38;10.40;;;7.13;;
79249;SDS011;68679;51.030;7.584;2023-08-21T11:57:11;9.18;;;5.82;;
79249;SDS011;68679;51.030;7.584;2023-08-21T11:59:38;7.53;;;4.80;;
79249;SDS011;68679;51.030;7.584;2023-08-21T12:02:24;7.63;;;4.75;;
79249;SDS011;68679;51.030;7.584;2023-08-21T12:04:53;9.10;;;5.63;;
79249;SDS011;68679;51.030;7.584;2023-08-21T12:07:31;8.23;;;3.92;;
79249;SDS011;68679;51.030;7.584;2023-08-21T12:09:57;6.90;;;4.80;;
79249;SDS011;68679;51.030;7.584;2023-08-21T12:12:23;8.50;;;4.90;;
79249;SDS011;68679;51.030;7.584;2023-08-21T12:14:48;6.18;;;3.88;;
79249;SDS011;68679;51.030;7.584;2023-08-21T12:17:14;6.03;;;4.03;;
79249;SDS011;68679;51.030;7.584;2023-08-21T12:19:39;7.60;;;5.33;;
79249;SDS011;68679;51.030;7.584;2023-08-21T12:22:04;7.60;;;4.60;;
79249;SDS011;68679;51.030;7.584;2023-08-21T12:24:30;6.32;;;4.30;;
79249;SDS011;68679;51.030;7.584;2023-08-21T12:26:56;7.75;;;4.53;;
79249;SDS011;68679;51.030;7.584;2023-08-21T12:29:21;7.68;;;5.25;;
79249;SDS011;68679;51.030;7.584;2023-08-21T12:31:46;17.88;;;5.32;;
79249;SDS011;68679;51.030;7.584;2023-08-21T12:34:12;7.70;;;5.00;;
79249;SDS011;68679;51.030;7.584;2023-08-21T12:36:37;12.07;;;4.80;;
79249;SDS011;68679;51.030;7.584;2023-08-21T12:39:03;6.65;;;4.78;;
79249;SDS011;68679;51.030;7.584;2023-08-21T12:41:29;12.95;;;5.20;;
79249;SDS011;68679;51.030;7.584;2023-08-21T12:43:54;6.65;;;3.63;;
79249;SDS011;68679;51.030;7.584;2023-08-21T12:46:20;7.37;;;4.30;;
79249;SDS011;68679;51.030;7.584;2023-08-21T12:48:45;7.75;;;4.13;;
79249;SDS011;68679;51.030;7.584;2023-08-21T12:51:11;6.27;;;4.60;;
79249;SDS011;68679;51.030;7.584;2023-08-21T12:53:36;6.63;;;4.23;;
79249;SDS011;68679;51.030;7.584;2023-08-21T12:56:01;5.60;;;3.30;;
79249;SDS011;68679;51.030;7.584;2023-08-21T12:58:26;6.33;;;3.90;;
79249;SDS011;68679;51.030;7.584;2023-08-21T13:00:53;7.85;;;4.30;;
79249;SDS011;68679;51.030;7.584;2023-08-21T13:03:19;5.87;;;4.80;;
79249;SDS011;68679;51.030;7.584;2023-08-21T13:05:45;5.90;;;3.28;;
79249;SDS011;68679;51.030;7.584;2023-08-21T13:08:10;6.88;;;3.70;;
79249;SDS011;68679;51.030;7.584;2023-08-21T13:10:35;7.67;;;5.10;;
79249;SDS011;68679;51.030;7.584;2023-08-21T13:13:01;10.23;;;5.03;;
79249;SDS011;68679;51.030;7.584;2023-08-21T13:15:26;6.43;;;4.53;;
79249;SDS011;68679;51.030;7.584;2023-08-21T13:17:51;10.47;;;4.73;;
79249;SDS011;68679;51.030;7.584;2023-08-21T13:20:17;5.13;;;3.60;;
79249;SDS011;68679;51.030;7.584;2023-08-21T13:22:49;5.20;;;3.63;;
79249;SDS011;68679;51.030;7.584;2023-08-21T13:25:21;6.07;;;3.70;;
79249;SDS011;68679;51.030;7.584;2023-08-21T13:27:48;5.75;;;3.42;;
79249;SDS011;68679;51.030;7.584;2023-08-21T13:30:14;6.95;;;4.25;;
79249;SDS011;68679;51.030;7.584;2023-08-21T13:32:40;5.32;;;3.03;;
79249;SDS011;68679;51.030;7.584;2023-08-21T13:35:05;5.00;;;3.42;;
79249;SDS011;68679;51.030;7.584;2023-08-21T13:37:33;7.93;;;3.72;;
79249;SDS011;68679;51.030;7.584;2023-08-21T13:39:58;7.03;;;3.90;;
79249;SDS011;68679;51.030;7.584;2023-08-21T13:42:25;5.70;;;4.43;;
79249;SDS011;68679;51.030;7.584;2023-08-21T13:44:50;8.95;;;4.07;;
79249;SDS011;68679;51.030;7.584;2023-08-21T13:47:16;6.88;;;3.63;;
79249;SDS011;68679;51.030;7.584;2023-08-21T13:49:41;5.88;;;3.47;;
79249;SDS011;68679;51.030;7.584;2023-08-21T13:52:07;4.93;;;3.47;;
79249;SDS011;68679;51.030;7.584;2023-08-21T13:54:32;6.20;;;4.03;;
79249;SDS011;68679;51.030;7.584;2023-08-21T13:56:57;7.37;;;3.83;;
79249;SDS011;68679;51.030;7.584;2023-08-21T13:59:24;6.45;;;3.53;;
79249;SDS011;68679;51.030;7.584;2023-08-21T14:01:49;6.90;;;3.45;;
79249;SDS011;68679;51.030;7.584;2023-08-21T14:04:15;4.73;;;3.10;;
79249;SDS011;68679;51.030;7.584;2023-08-21T14:06:40;5.40;;;2.87;;
79249;SDS011;68679;51.030;7.584;2023-08-21T14:09:05;6.13;;;2.83;;
79249;SDS011;68679;51.030;7.584;2023-08-21T14:11:30;5.33;;;3.03;;
79249;SDS011;68679;51.030;7.584;2023-08-21T14:13:56;5.37;;;3.20;;
79249;SDS011;68679;51.030;7.584;2023-08-21T14:16:21;5.63;;;3.43;;
79249;SDS011;68679;51.030;7.584;2023-08-21T14:18:46;5.30;;;3.70;;
79249;SDS011;68679;51.030;7.584;2023-08-21T14:21:12;5.77;;;3.23;;
79249;SDS011;68679;51.030;7.584;2023-08-21T14:23:37;5.33;;;3.07;;
79249;SDS011;68679;51.030;7.584;2023-08-21T14:26:04;6.53;;;3.20;;
79249;SDS011;68679;51.030;7.584;2023-08-21T14:28:29;6.87;;;2.87;;
79249;SDS011;68679;51.030;7.584;2023-08-21T14:30:54;5.03;;;3.20;;
79249;SDS011;68679;51.030;7.584;2023-08-21T14:33:20;5.20;;;3.47;;
79249;SDS011;68679;51.030;7.584;2023-08-21T14:35:46;5.05;;;3.33;;
79249;SDS011;68679;51.030;7.584;2023-08-21T14:38:11;4.72;;;2.60;;